• Join FlightAware (Why Join?)
  • Login
  • US Flag 
05:48PM EDT


 

Airport Tracker/Info


-or-


 

Live Flight TrackerFlight Track Log ✈ SWA1245 ✈ 10-May-2013 ✈ KLAX - KSTL

Flight Track Log - Related Links

Times and Time Zones

All times are in EDT time to prevent confusion due to time zone crossing. See the SWA1245 flight status page for this flight to view local times or setup timezone preferences in your user account.

Time Position Orientation Groundspeed Altitude Reporting Facility
EDT Latitude Longitude Course Direction KTS MPH feet Rate Location/Type
11:47AM 33.9383 -118.5342 264° West 226 260 3,400  Level Los Angeles Center
11:48AM 33.9161 -118.6239 253° West 269 310 6,200 2,040 Climbing Los Angeles Center
11:49AM 33.8442 -118.6117 172° South 282 325 7,700 2,100 Climbing Los Angeles Center
11:50AM 33.8167 -118.5356 113° Southeast 251 289 10,600 1,620 Climbing Los Angeles Center
11:51AM 33.8828 -118.4764 37° Northeast 296 341 11,100 1,140 Climbing Los Angeles Center
11:52AM 34.2899 -117.7868 59° Northeast  Level FlightAware Approximate
11:52AM 33.9511 -118.4028 42° Northeast 342 394 13,000  Level Los Angeles Center
11:53AM 34.0081 -118.3019 56° Northeast 357 411 14,800 1,800 Climbing Los Angeles Center
11:54AM 34.0667 -118.1975 56° Northeast 369 425 16,800 1,680 Climbing Los Angeles Center
11:55AM 34.1272 -118.0897 56° Northeast 381 438 18,300 1,860 Climbing Los Angeles Center
11:57AM 34.2025 -117.9558 56° Northeast 397 457 20,700 1,680 Climbing Los Angeles Center
11:58AM 34.2753 -117.8531 49° Northeast 404 465 21,900 1,200 Climbing Los Angeles Center
11:59AM 34.3353 -117.7667 50° Northeast 415 478 23,300 1,740 Climbing Los Angeles Center
12:00PM 34.4211 -117.6411 50° Northeast 414 476 25,600 1,740 Climbing Los Angeles Center
12:01PM 34.4942 -117.5367 50° Northeast 410 472 26,900 1,320 Climbing Los Angeles Center
12:02PM 34.5819 -117.4078 50° Northeast 415 478 28,700 1,560 Climbing Los Angeles Center
12:03PM 34.6675 -117.2842 50° Northeast 404 465 30,500 1,200 Climbing Los Angeles Center
12:04PM 34.7372 -117.1811 51° Northeast 399 459 31,500 960 Climbing Los Angeles Center
12:05PM 34.8211 -117.0569 51° Northeast 399 459 32,700 720 Climbing Los Angeles Center
12:06PM 34.9042 -116.9331 51° Northeast 398 458 33,000 120 Climbing Los Angeles Center
12:07PM 34.9756 -116.8275 50° Northeast 404 465 33,000  Level Los Angeles Center
12:08PM 35.0464 -116.7225 50° Northeast 403 464 33,000  Level Los Angeles Center
12:09PM 35.1172 -116.6169 51° Northeast 404 465 33,000  Level Los Angeles Center
12:10PM 35.1875 -116.5117 51° Northeast 402 463 33,000  Level Los Angeles Center
12:11PM 35.2622 -116.4053 49° Northeast 410 472 33,000  Level Los Angeles Center
12:12PM 35.3450 -116.2797 51° Northeast 399 459 33,000  Level Los Angeles Center
12:14PM 35.4089 -116.1697 55° Northeast 398 458 33,000  Level Los Angeles Center
12:15PM 35.4408 -116.0347 74° East 410 472 33,000  Level Los Angeles Center
12:16PM 35.4733 -115.9031 73° East 404 465 33,000  Level Los Angeles Center
12:17PM 35.5058 -115.7525 75° East 411 473 33,000  Level Los Angeles Center
12:18PM 35.5350 -115.6164 75° East 413 475 33,000  Level Los Angeles Center
12:19PM 35.5644 -115.4839 75° East 408 470 33,000  Level Los Angeles Center
12:20PM 35.6022 -115.3222 74° East 411 473 33,000  Level Los Angeles Center
12:21PM 35.6322 -115.1869 75° East 412 474 33,000  Level Los Angeles Center
12:22PM 35.6614 -115.0542 75° East 407 468 33,000  Level Los Angeles Center
12:23PM 35.6919 -114.9186 74° East 412 474 33,000  Level Los Angeles Center
12:24PM 35.7253 -114.7569 76° East 409 471 33,000  Level Los Angeles Center
12:25PM 35.7544 -114.6214 75° East 411 473 33,000  Level Los Angeles Center
12:26PM 35.7894 -114.4589 75° East 411 473 33,000 180 Level Los Angeles Center
12:27PM 35.8181 -114.3233 75° East 411 473 33,500 720 Climbing Los Angeles Center
12:28PM 35.8517 -114.1678 75° East 394 453 34,700 720 Climbing Los Angeles Center
12:29PM 35.8797 -114.0350 75° East 399 459 35,000 120 Climbing Los Angeles Center
12:30PM 35.9072 -113.8989 76° East 408 470 35,000  Level Los Angeles Center
12:32PM 35.9419 -113.7347 75° East 412 474 35,000  Level Los Angeles Center
12:33PM 35.9714 -113.5964 75° East 417 480 35,000  Level Los Angeles Center
12:34PM 36.0000 -113.4589 76° East 415 478 35,000  Level Los Angeles Center
12:35PM 36.0275 -113.3192 76° East 418 481 35,000  Level Los Angeles Center
12:36PM 36.0567 -113.1792 76° East 415 478 35,000  Level Los Angeles Center
12:37PM 36.0844 -113.0419 76° East 414 476 35,000  Level Los Angeles Center
12:38PM 36.1178 -112.8772 76° East 414 476 35,000  Level Los Angeles Center
12:39PM 36.1447 -112.7397 76° East 413 475 35,000  Level Los Angeles Center
12:40PM 36.1722 -112.6011 76° East 416 479 35,000  Level Los Angeles Center
12:41PM 36.1989 -112.4642 76° East 414 476 35,000  Level Los Angeles Center
12:42PM 36.2203 -112.3542 76° East 412 474 35,000  Level Los Angeles Center
12:43PM 36.2586 -112.1606 76° East 416 479 35,000  Level Los Angeles Center
12:44PM 36.2853 -112.0222 77° East 415 478 35,000  Level Los Angeles Center
12:45PM 36.3114 -111.8836 77° East 416 479 35,000  Level Los Angeles Center
12:45PM 36.3231 -111.8275 76° East 418 481 35,000  Level Denver Center
12:46PM 36.3489 -111.6875 77° East 419 482 35,000  Level Denver Center
12:47PM 36.3756 -111.5475 77° East 419 482 35,000  Level Denver Center
12:48PM 36.4011 -111.4081 77° East 418 481 35,000  Level Denver Center
12:49PM 36.4286 -111.2672 76° East 420 483 35,000  Level Denver Center
12:50PM 36.4597 -111.0978 77° East 421 484 35,000  Level Denver Center
12:52PM 36.4847 -110.9567 78° East 420 483 35,000  Level Denver Center
12:53PM 36.5114 -110.8153 77° East 421 484 35,000  Level Denver Center
12:54PM 36.5372 -110.6744 77° East 420 483 35,000  Level Denver Center
12:55PM 36.5617 -110.5325 78° East 421 484 35,000  Level Denver Center
12:56PM 36.5853 -110.3931 78° East 417 480 35,000  Level Denver Center
12:57PM 36.6147 -110.2222 78° East 422 486 35,000  Level Denver Center
12:58PM 36.6392 -110.0842 78° East 424 488 35,000  Level Denver Center
12:59PM 36.6631 -109.9475 78° East 421 484 35,000  Level Denver Center
01:00PM 36.6897 -109.7883 78° East 419 482 35,000  Level Denver Center
01:01PM 36.7131 -109.6508 78° East 420 483 35,000  Level Denver Center
01:02PM 36.7408 -109.4903 78° East 422 486 35,000  Level Denver Center
01:03PM 36.7636 -109.3519 78° East 423 487 35,000  Level Denver Center
01:04PM 36.7903 -109.1903 78° East 425 489 35,000  Level Denver Center
01:05PM 36.8133 -109.0519 78° East 424 488 35,000  Level Denver Center
01:06PM 36.8406 -108.8917 78° East 422 486 35,000  Level Denver Center
01:07PM 36.8631 -108.7514 79° East 426 490 35,000  Level Denver Center
01:08PM 36.8850 -108.6117 79° East 427 491 35,000  Level Denver Center
01:09PM 36.9111 -108.4483 79° East 429 494 35,000  Level Denver Center
01:10PM 36.9331 -108.3097 79° East 426 490 35,000  Level Denver Center
01:11PM 36.9581 -108.1483 79° East 424 488 35,000  Level Denver Center
01:12PM 36.9803 -108.0083 79° East 426 490 35,000  Level Denver Center
01:13PM 37.0056 -107.8456 79° East 427 491 35,000  Level Denver Center
01:14PM 37.0272 -107.7072 79° East 424 488 35,000  Level Denver Center
01:15PM 37.0514 -107.5444 79° East 425 489 35,000  Level Denver Center
01:16PM 37.0722 -107.4028 80° East 431 496 35,000  Level Denver Center
01:17PM 37.0967 -107.2400 79° East 427 491 35,000  Level Denver Center
01:18PM 37.1169 -107.1017 80° East 422 486 35,000  Level Denver Center
01:19PM 37.1383 -106.9608 79° East 428 493 35,000  Level Denver Center
01:20PM 37.1625 -106.7958 80° East 432 497 35,000  Level Denver Center
01:22PM 37.1819 -106.6547 80° East 431 496 35,000  Level Denver Center
01:23PM 37.2053 -106.4911 80° East 428 493 35,000  Level Denver Center
01:24PM 37.2269 -106.3506 79° East 429 494 35,000  Level Denver Center
01:25PM 37.2494 -106.1850 80° East 431 496 35,000  Level Denver Center
01:26PM 37.2683 -106.0428 80° East 431 496 35,000  Level Denver Center
01:27PM 37.2889 -105.8772 81° East 431 496 35,000  Level Denver Center
01:28PM 37.3094 -105.7358 80° East 431 496 35,000  Level Denver Center
01:29PM 37.3300 -105.5706 81° East 430 495 35,000  Level Denver Center
01:30PM 37.3519 -105.4303 79° East 428 493 35,000  Level Denver Center
01:31PM 37.3736 -105.2661 81° East 426 490 35,000  Level Denver Center
01:32PM 37.3892 -105.1325 82° East 432 497 35,000  Level Denver Center
01:33PM 37.4100 -104.9694 81° East 424 488 35,000  Level Denver Center
01:34PM 37.4294 -104.8286 80° East 425 489 35,000  Level Denver Center
01:35PM 37.4503 -104.6639 81° East 426 490 35,000  Level Denver Center
01:36PM 37.4669 -104.5233 81° East 425 489 35,000  Level Denver Center
01:37PM 37.4867 -104.3589 81° East 424 488 35,000  Level Denver Center
01:38PM 37.5033 -104.2186 81° East 424 488 35,000  Level Denver Center
01:39PM 37.5206 -104.0794 81° East 423 487 35,000  Level Denver Center
01:40PM 37.5414 -103.9039 81° East 420 483 35,000  Level Denver Center
01:41PM 37.5583 -103.7661 81° East 418 481 35,000  Level Denver Center
01:42PM 37.5767 -103.6058 82° East 416 479 35,000  Level Denver Center
01:43PM 37.5922 -103.4681 82° East 415 478 35,000  Level Denver Center
01:44PM 37.6081 -103.3297 82° East 416 479 35,000  Level Denver Center
01:45PM 37.6261 -103.1686 82° East 416 479 35,000  Level Denver Center
01:46PM 37.6414 -103.0294 82° East 417 480 35,000  Level Denver Center
01:47PM 37.6586 -102.8675 82° East 417 480 35,000  Level Denver Center
01:48PM 37.6742 -102.7281 82° East 418 481 35,000  Level Denver Center
01:49PM 37.6906 -102.5647 83° East 421 484 35,000  Level Denver Center
01:50PM 37.7053 -102.4256 82° East 422 486 35,000  Level Denver Center
01:51PM 37.7228 -102.2614 82° East 423 487 35,000  Level Denver Center
01:53PM 37.7389 -102.1178 82° East 430 495 35,000  Level Denver Center
01:54PM 37.7558 -101.9492 83° East 433 498 35,000  Level Denver Center
01:55PM 37.7711 -101.8053 82° East 433 498 35,000  Level Denver Center
01:56PM 37.7881 -101.6356 83° East 436 502 35,000  Level Denver Center
01:56PM 37.7922 -101.5861 84° East 435 501 35,000  Level Kansas City Center
01:57PM 37.8089 -101.4161 83° East 437 503 35,000  Level Kansas City Center
01:58PM 37.8231 -101.2692 83° East 438 504 35,000  Level Kansas City Center
01:59PM 37.8392 -101.0983 83° East 436 502 35,000  Level Kansas City Center
02:00PM 37.8536 -100.9497 83° East 438 504 35,000  Level Kansas City Center
02:01PM 37.8681 -100.7994 83° East 441 507 35,000  Level Kansas City Center
02:02PM 37.8831 -100.6236 84° East 445 512 35,000  Level Kansas City Center
02:03PM 37.8967 -100.4722 83° East 449 517 35,000  Level Kansas City Center
02:04PM 37.9128 -100.2986 83° East 446 513 35,000  Level Kansas City Center
02:05PM 37.9256 -100.1467 84° East 450 518 35,000  Level Kansas City Center
02:06PM 37.9400 -99.9700 84° East 452 520 35,000  Level Kansas City Center
02:07PM 37.9528 -99.8189 84° East 452 520 35,000  Level Kansas City Center
02:08PM 37.9675 -99.6414 84° East 453 521 35,000  Level Kansas City Center
02:09PM 37.9797 -99.4889 84° East 454 522 35,000  Level Kansas City Center
02:11PM 37.9914 -99.3450 84° East 454 522 35,000  Level Kansas City Center
02:12PM 38.0061 -99.1528 84° East 456 525 35,000  Level Kansas City Center
02:13PM 38.0175 -98.9922 85° East 457 526 35,000  Level Kansas City Center
02:14PM 38.0306 -98.8331 84° East 455 524 35,000  Level Kansas City Center
02:15PM 38.0419 -98.6725 85° East 456 525 35,000  Level Kansas City Center
02:16PM 38.0550 -98.5119 84° East 457 526 35,000  Level Kansas City Center
02:17PM 38.0664 -98.3486 85° East 461 531 35,000  Level Kansas City Center
02:18PM 38.0778 -98.1883 85° East 456 525 35,000  Level Kansas City Center
02:19PM 38.0869 -98.0131 86° East 460 529 35,000  Level Kansas City Center
02:20PM 38.1003 -97.8172 85° East 462 532 35,000  Level Kansas City Center
02:21PM 38.1103 -97.6639 85° East 462 532 35,000  Level Kansas City Center
02:22PM 38.1203 -97.5011 85° East 463 533 35,000  Level Kansas City Center
02:23PM 38.1331 -97.3300 85° East 463 533 35,000  Level Kansas City Center
02:24PM 38.1431 -97.1658 86° East 466 536 35,000  Level Kansas City Center
02:25PM 38.1522 -97.0011 86° East 467 537 35,000  Level Kansas City Center
02:26PM 38.1625 -96.8369 85° East 466 536 35,000  Level Kansas City Center
02:27PM 38.1731 -96.6389 86° East 468 539 35,000  Level Kansas City Center
02:28PM 38.1825 -96.4742 86° East 467 537 35,000  Level Kansas City Center
02:29PM 38.1914 -96.3083 86° East 470 541 35,000  Level Kansas City Center
02:30PM 38.1983 -96.1472 87° East 468 539 35,000  Level Kansas City Center
02:31PM 38.2081 -95.9650 86° East 465 535 35,000  Level Kansas City Center
02:32PM 38.2153 -95.8050 87° East 471 542 35,000  Level Kansas City Center
02:33PM 38.2242 -95.6197 86° East 472 543 35,000  Level Kansas City Center
02:34PM 38.2322 -95.4606 86° East 472 543 35,000  Level Kansas City Center
02:35PM 38.2397 -95.2775 87° East 469 540 35,000  Level Kansas City Center
02:36PM 38.2472 -95.1153 87° East 473 544 35,000  Level Kansas City Center
02:37PM 38.2547 -94.9281 87° East 476 548 35,000  Level Kansas City Center
02:38PM 38.2614 -94.7678 87° East 476 548 35,000  Level Kansas City Center
02:39PM 38.2700 -94.5750 87° East 482 555 35,000 -60 Level Kansas City Center
02:41PM 38.2839 -94.4150 84° East 480 552 34,900  Descending Kansas City Center
02:42PM 38.3156 -94.2294 78° East 480 552 35,000  Climbing Kansas City Center
02:43PM 38.3389 -94.0817 79° East 481 554 35,000  Level Kansas City Center
02:44PM 38.3708 -93.8850 78° East 473 544 35,000  Level Kansas City Center
02:45PM 38.3964 -93.7214 79° East 470 541 35,000  Level Kansas City Center
02:46PM 38.4228 -93.5586 78° East 468 539 35,000  Level Kansas City Center
02:47PM 38.4475 -93.3947 79° East 469 540 35,000  Level Kansas City Center
02:48PM 38.4739 -93.2308 78° East 469 540 35,000  Level Kansas City Center
02:49PM 38.4989 -93.0669 79° East 468 539 35,000  Level Kansas City Center
02:50PM 38.5242 -92.9047 79° East 465 535 35,000  Level Kansas City Center
02:51PM 38.5531 -92.7072 79° East 467 537 35,000  Level Kansas City Center
02:52PM 38.5769 -92.5425 79° East 467 537 35,000  Level Kansas City Center
02:53PM 38.6008 -92.3778 79° East 468 539 35,000 -660 Level Kansas City Center
02:54PM 38.6233 -92.2125 80° East 467 537 33,700 -2,100 Descending Kansas City Center
02:55PM 38.6481 -92.0492 79° East 466 536 30,700 -2,820 Descending Kansas City Center
02:56PM 38.6711 -91.8847 80° East 466 536 27,900 -2,520 Descending Kansas City Center
02:57PM 38.6919 -91.7228 81° East 462 532 25,500 -2,340 Descending Kansas City Center
02:58PM 38.6919 -91.5656 90° East 449 517 23,100 -2,520 Descending Kansas City Center
02:59PM 38.6925 -91.3806 90° East 438 504 20,300 -2,460 Descending Kansas City Center
03:00PM 38.6933 -91.2364 90° East 426 490 18,000 -2,220 Descending Kansas City Center
03:01PM 38.6947 -91.0936 89° East 410 472 15,800 -2,160 Descending Kansas City Center
03:02PM 38.7006 -90.9575 87° East 392 451 13,600 -2,100 Descending Kansas City Center
03:03PM 38.7031 -90.8253 89° East 378 435 11,500 -1,740 Descending Kansas City Center
03:04PM 38.7067 -90.6978 88° East 366 421 10,100 -1,200 Descending Kansas City Center
03:05PM 38.7131 -90.5683 86° East 313 360 9,100 -840 Descending Kansas City Center
03:06PM 38.6928 -90.4819 107° East 271 312 8,400 -1,020 Descending Kansas City Center
03:07PM 38.6569 -90.4122 123° Southeast 249 287 7,100 -1,200 Descending Kansas City Center
03:08PM 38.6172 -90.3297 122° Southeast 245 282 6,000 -540 Descending Kansas City Center
03:09PM 38.5797 -90.2567 123° Southeast 239 275 6,000 -60 Level Kansas City Center
03:11PM 38.5472 -90.1928 123° Southeast 228 262 5,900 -540 Descending Kansas City Center
03:12PM 38.5656 -90.1386 67° East 213 245 5,000 -660 Descending Kansas City Center
03:13PM 38.6114 -90.1275 11° North 201 231 4,600 -480 Descending Kansas City Center
03:14PM 38.6511 -90.1622 326° Northwest 184 212 4,100 -1,020 Descending Kansas City Center
03:15PM 38.6853 -90.2314 302° West 188 216 2,600 -1,200 Descending Kansas City Center
03:16PM 38.7103 -90.2833 302° West 182 209 1,700 -780 Descending Kansas City Center
03:17PM 38.7300 -90.3228 303° West 152 175 1,000 -480 Descending Kansas City Center
03:18PM 38.7494 -90.3594 304° West 147 169 700 -300 Descending Kansas City Center